createdAt,value
2023-05-23T00:02:02.154Z,18.26
2023-05-23T00:04:36.004Z,18.17
2023-05-23T00:07:08.392Z,18.22
2023-05-23T00:09:40.488Z,18.22
2023-05-23T00:12:12.857Z,18.20
2023-05-23T00:14:45.395Z,18.09
2023-05-23T00:17:18.615Z,18.14
2023-05-23T00:19:50.984Z,18.10
2023-05-23T00:22:23.274Z,18.10
2023-05-23T00:24:57.792Z,18.08
2023-05-23T00:27:30.130Z,18.06
2023-05-23T00:30:02.916Z,18.06
2023-05-23T00:32:35.861Z,18.06
2023-05-23T00:35:09.732Z,18.04
2023-05-23T00:37:42.229Z,18.01
2023-05-23T00:40:15.684Z,18.00
2023-05-23T00:42:48.707Z,17.98
2023-05-23T00:45:20.784Z,17.96
2023-05-23T00:47:53.269Z,17.95
2023-05-23T00:50:29.884Z,17.91
2023-05-23T00:53:03.435Z,17.89
2023-05-23T00:55:35.829Z,17.85
2023-05-23T00:58:08.427Z,17.82
2023-05-23T01:03:31.366Z,17.78
2023-05-23T01:06:03.985Z,17.76
2023-05-23T01:08:36.661Z,17.72
2023-05-23T01:11:16.005Z,17.71
2023-05-23T01:13:57.693Z,17.69
2023-05-23T01:16:37.644Z,17.69
2023-05-23T01:19:19.218Z,17.66
2023-05-23T01:21:57.110Z,17.64
2023-05-23T01:24:48.589Z,17.63
2023-05-23T01:27:32.267Z,17.61
2023-05-23T01:30:05.985Z,17.58
2023-05-23T01:32:38.547Z,17.57
2023-05-23T01:35:12.294Z,17.55
2023-05-23T01:37:47.682Z,17.55
2023-05-23T01:40:20.381Z,17.55
2023-05-23T01:42:53.185Z,17.52
2023-05-23T01:45:29.194Z,17.51
2023-05-23T01:48:03.152Z,17.49
2023-05-23T01:50:36.634Z,17.48
2023-05-23T01:53:11.245Z,17.47
2023-05-23T01:55:45.070Z,17.46
2023-05-23T01:58:17.439Z,17.46
2023-05-23T02:00:50.484Z,17.38
2023-05-23T02:03:22.833Z,17.41
2023-05-23T02:05:55.503Z,17.40
2023-05-23T02:08:28.231Z,17.39
2023-05-23T02:11:01.584Z,17.37
2023-05-23T02:13:34.312Z,17.36
2023-05-23T02:16:07.687Z,17.35
2023-05-23T02:18:39.880Z,17.35
2023-05-23T02:21:12.126Z,17.32
2023-05-23T02:23:44.341Z,17.30
2023-05-23T02:26:16.640Z,17.29
2023-05-23T02:28:49.178Z,17.27
2023-05-23T02:31:22.347Z,17.25
2023-05-23T02:33:54.830Z,17.23
2023-05-23T02:36:27.270Z,17.22
2023-05-23T02:39:00.764Z,17.20
2023-05-23T02:41:33.454Z,17.19
2023-05-23T02:44:05.631Z,17.18
2023-05-23T02:46:38.020Z,17.09
2023-05-23T02:49:10.291Z,17.09
2023-05-23T02:51:42.781Z,17.16
2023-05-23T02:54:15.350Z,17.09
2023-05-23T02:56:48.054Z,17.15
2023-05-23T02:59:20.284Z,17.07
2023-05-23T03:01:52.717Z,17.07
2023-05-23T03:04:25.120Z,17.14
2023-05-23T03:06:59.921Z,17.12
2023-05-23T03:09:32.350Z,17.11
2023-05-23T03:12:05.405Z,17.09
2023-05-23T03:14:37.823Z,17.08
2023-05-23T03:17:10.208Z,17.07
2023-05-23T03:19:42.285Z,17.07
2023-05-23T03:22:14.604Z,17.05
2023-05-23T03:24:47.547Z,17.05
2023-05-23T03:27:20.069Z,17.05
2023-05-23T03:29:52.089Z,17.03
2023-05-23T03:32:24.834Z,17.05
2023-05-23T03:34:57.097Z,17.03
2023-05-23T03:37:29.521Z,16.96
2023-05-23T03:40:04.956Z,17.04
2023-05-23T03:42:37.471Z,17.03
2023-05-23T03:45:11.650Z,17.04
2023-05-23T03:47:44.601Z,17.05
2023-05-23T03:50:17.301Z,17.06
2023-05-23T03:52:50.226Z,16.98
2023-05-23T03:55:24.328Z,17.05
2023-05-23T03:57:56.714Z,17.07
2023-05-23T04:00:29.120Z,17.09
2023-05-23T04:03:03.045Z,17.05
2023-05-23T04:05:35.764Z,17.13
2023-05-23T04:08:09.816Z,17.15
2023-05-23T04:10:42.217Z,17.17
2023-05-23T04:13:15.436Z,17.20
2023-05-23T04:15:49.304Z,17.22
2023-05-23T04:18:23.553Z,17.26
2023-05-23T04:20:55.700Z,17.31
2023-05-23T04:23:28.598Z,17.35
2023-05-23T04:26:01.555Z,17.38
2023-05-23T04:28:40.785Z,17.42
2023-05-23T04:31:13.902Z,17.47
2023-05-23T04:33:48.528Z,17.46
2023-05-23T04:36:25.878Z,17.50
2023-05-23T04:39:00.257Z,17.56
2023-05-23T04:41:33.961Z,17.64
2023-05-23T04:44:15.126Z,17.68
2023-05-23T04:47:09.022Z,17.74
2023-05-23T04:50:05.666Z,17.80
2023-05-23T04:52:38.110Z,17.84
2023-05-23T04:55:11.379Z,17.89
2023-05-23T04:57:43.855Z,17.93
2023-05-23T05:00:18.775Z,17.95
2023-05-23T05:02:51.321Z,18.00
2023-05-23T05:05:24.050Z,18.02
2023-05-23T05:07:56.289Z,18.05
2023-05-23T05:10:29.630Z,18.12
2023-05-23T05:13:03.496Z,18.15
2023-05-23T05:15:43.912Z,18.20
2023-05-23T05:18:17.045Z,18.26
2023-05-23T05:20:51.093Z,18.28
2023-05-23T05:23:28.825Z,18.33
2023-05-23T05:26:01.922Z,18.38
2023-05-23T05:28:34.317Z,18.41
2023-05-23T05:31:06.885Z,18.52
2023-05-23T05:33:41.933Z,18.62
2023-05-23T05:36:17.293Z,18.71
2023-05-23T05:38:51.244Z,18.80
2023-05-23T05:41:27.017Z,18.90
2023-05-23T05:43:59.759Z,19.02
2023-05-23T05:46:32.774Z,19.11
2023-05-23T05:49:05.327Z,19.23
2023-05-23T05:51:37.748Z,19.32
2023-05-23T05:54:10.807Z,19.41
2023-05-23T05:56:43.468Z,19.48
2023-05-23T05:59:16.404Z,19.51
2023-05-23T06:01:51.303Z,19.55
2023-05-23T06:04:23.825Z,19.56
2023-05-23T06:06:57.309Z,19.64
2023-05-23T06:09:29.576Z,19.68
2023-05-23T06:12:03.172Z,19.73
2023-05-23T06:14:35.685Z,19.74
2023-05-23T06:17:09.126Z,19.79
2023-05-23T06:19:41.520Z,19.84
2023-05-23T06:22:14.156Z,19.91
2023-05-23T06:24:46.847Z,19.97
2023-05-23T06:27:19.102Z,20.02
2023-05-23T06:29:52.420Z,20.05
2023-05-23T06:32:25.057Z,20.16
2023-05-23T06:34:57.161Z,20.16
2023-05-23T06:37:29.462Z,20.35
2023-05-23T06:40:02.081Z,20.42
2023-05-23T06:42:34.424Z,20.49
2023-05-23T06:45:28.388Z,20.57
2023-05-23T06:48:01.482Z,20.65
2023-05-23T06:50:34.070Z,20.67
2023-05-23T06:53:07.471Z,20.79
2023-05-23T06:55:39.761Z,20.87
2023-05-23T06:58:13.031Z,20.95
2023-05-23T07:00:45.353Z,21.03
2023-05-23T07:03:25.461Z,21.10
2023-05-23T07:05:58.905Z,21.18
2023-05-23T07:08:31.824Z,21.23
2023-05-23T07:11:06.403Z,21.21
2023-05-23T07:13:50.943Z,21.35
2023-05-23T07:16:28.417Z,21.45
2023-05-23T07:19:06.109Z,21.52
2023-05-23T07:21:41.568Z,21.57
2023-05-23T07:24:14.098Z,21.62
2023-05-23T07:26:46.364Z,21.62
2023-05-23T07:29:18.982Z,21.53
2023-05-23T07:31:52.192Z,21.69
2023-05-23T07:34:26.943Z,21.74
2023-05-23T07:37:01.387Z,21.80
2023-05-23T07:39:37.466Z,21.86
2023-05-23T07:42:10.879Z,21.91
2023-05-23T07:44:44.308Z,21.97
2023-05-23T07:47:16.879Z,22.03
2023-05-23T07:49:49.308Z,22.09
2023-05-23T07:52:21.990Z,22.19
2023-05-23T07:54:54.332Z,22.28
2023-05-23T07:57:27.783Z,22.33
2023-05-23T08:00:00.365Z,22.46
2023-05-23T08:02:33.640Z,22.55
2023-05-23T08:05:08.768Z,22.51
2023-05-23T08:07:42.301Z,22.65
2023-05-23T08:10:14.953Z,22.74
2023-05-23T08:12:47.560Z,22.83
2023-05-23T08:15:23.374Z,22.88
2023-05-23T08:18:00.491Z,23.06
2023-05-23T08:20:33.610Z,23.11
2023-05-23T08:23:06.036Z,23.19
2023-05-23T08:25:38.564Z,23.37
2023-05-23T08:28:11.557Z,23.39
2023-05-23T08:30:54.100Z,23.48
2023-05-23T08:33:26.676Z,23.55
2023-05-23T08:35:59.967Z,23.60
2023-05-23T08:38:32.234Z,23.60
2023-05-23T08:41:23.388Z,23.62
2023-05-23T08:43:58.895Z,23.78
2023-05-23T08:46:35.205Z,23.79
2023-05-23T08:49:08.789Z,23.78
2023-05-23T08:51:45.676Z,23.78
2023-05-23T08:54:22.488Z,23.74
2023-05-23T08:56:54.951Z,23.76
2023-05-23T08:59:29.060Z,23.79
2023-05-23T09:02:01.799Z,23.79
2023-05-23T09:04:34.466Z,23.79
2023-05-23T09:07:13.229Z,23.81
2023-05-23T09:09:45.678Z,23.85
2023-05-23T09:12:22.530Z,23.90
2023-05-23T09:14:55.410Z,23.93
2023-05-23T09:17:28.161Z,23.98
2023-05-23T09:20:01.736Z,23.98
2023-05-23T09:22:49.207Z,24.00
2023-05-23T09:25:22.086Z,24.03
2023-05-23T09:27:56.794Z,24.00
2023-05-23T09:30:30.227Z,24.07
2023-05-23T09:33:05.544Z,24.17
2023-05-23T09:35:44.570Z,24.26
2023-05-23T09:38:16.889Z,24.38
2023-05-23T09:40:49.173Z,24.40
2023-05-23T09:43:23.193Z,24.35
2023-05-23T09:46:01.799Z,24.36
2023-05-23T09:48:34.685Z,24.37
2023-05-23T09:51:12.827Z,24.38
2023-05-23T09:53:46.026Z,24.31
2023-05-23T09:56:19.160Z,24.40
2023-05-23T09:58:52.589Z,24.46
2023-05-23T10:01:27.181Z,24.49
2023-05-23T10:04:01.042Z,24.54
2023-05-23T10:06:40.293Z,24.48
2023-05-23T10:09:18.969Z,24.61
2023-05-23T10:12:40.539Z,24.64
2023-05-23T10:15:18.072Z,24.68
2023-05-23T10:18:09.156Z,24.73
2023-05-23T10:20:44.834Z,24.75
2023-05-23T10:23:18.434Z,24.76
2023-05-23T10:25:52.536Z,24.79
2023-05-23T10:28:25.119Z,24.80
2023-05-23T10:30:57.999Z,24.80
2023-05-23T10:33:35.225Z,24.79
2023-05-23T10:36:14.328Z,24.71
2023-05-23T10:38:53.052Z,24.68
2023-05-23T10:41:43.491Z,24.65
2023-05-23T10:44:19.484Z,24.56
2023-05-23T10:46:58.308Z,24.50
2023-05-23T10:49:42.939Z,24.47
2023-05-23T10:52:17.764Z,24.41
2023-05-23T10:54:53.626Z,24.31
2023-05-23T10:57:28.947Z,24.21
2023-05-23T11:00:01.876Z,24.17
2023-05-23T11:02:34.604Z,24.06
2023-05-23T11:05:24.713Z,23.91
2023-05-23T11:08:22.412Z,23.77
2023-05-23T11:11:00.629Z,23.56
2023-05-23T11:14:00.830Z,23.28
2023-05-23T11:16:42.202Z,22.86
2023-05-23T11:19:29.432Z,22.80
2023-05-23T11:22:03.092Z,22.84
2023-05-23T11:24:55.738Z,22.73
2023-05-23T11:27:34.563Z,22.62
2023-05-23T11:30:11.793Z,22.35
2023-05-23T11:32:51.021Z,22.34
2023-05-23T11:35:24.241Z,22.31
2023-05-23T11:37:59.794Z,22.26
2023-05-23T11:40:33.972Z,22.19
2023-05-23T11:43:08.220Z,22.04
2023-05-23T11:45:41.921Z,21.99
2023-05-23T11:48:16.789Z,21.97
2023-05-23T11:50:49.392Z,21.93
2023-05-23T11:53:25.667Z,21.81
2023-05-23T11:56:00.733Z,21.81
2023-05-23T11:58:34.947Z,21.77
2023-05-23T12:01:08.909Z,21.70
2023-05-23T12:03:50.009Z,21.57
2023-05-23T12:06:24.941Z,21.57
2023-05-23T12:08:57.302Z,21.55
2023-05-23T12:11:32.383Z,21.53
2023-05-23T12:14:06.651Z,21.51
2023-05-23T12:16:39.580Z,21.47
2023-05-23T12:19:11.991Z,21.41
2023-05-23T12:21:46.023Z,21.30
2023-05-23T12:24:22.489Z,21.21
2023-05-23T12:26:57.354Z,21.24
2023-05-23T12:29:35.005Z,21.27
2023-05-23T12:32:09.565Z,21.25
2023-05-23T12:34:45.088Z,21.20
2023-05-23T12:37:20.222Z,21.17
2023-05-23T12:39:52.966Z,21.16
2023-05-23T12:42:25.326Z,21.21
2023-05-23T12:44:57.901Z,21.14
2023-05-23T12:47:30.171Z,21.07
2023-05-23T12:50:02.430Z,21.05
2023-05-23T12:52:36.738Z,21.06
2023-05-23T12:55:10.411Z,21.01
2023-05-23T12:57:43.017Z,20.98
2023-05-23T13:00:19.489Z,20.75
2023-05-23T13:02:51.977Z,20.78
2023-05-23T13:05:24.469Z,20.75
2023-05-23T13:07:59.534Z,20.76
2023-05-23T13:10:32.338Z,20.66
2023-05-23T13:13:04.993Z,20.67
2023-05-23T13:15:37.398Z,20.61
2023-05-23T13:18:09.793Z,20.59
2023-05-23T13:20:42.570Z,20.58
2023-05-23T13:23:14.833Z,20.55
2023-05-23T13:25:47.621Z,20.50
2023-05-23T13:28:20.091Z,20.53
2023-05-23T13:30:53.002Z,20.56
2023-05-23T13:33:26.017Z,20.56
2023-05-23T13:35:58.714Z,20.52
2023-05-23T13:38:32.183Z,20.45
2023-05-23T13:41:04.581Z,20.39
2023-05-23T13:43:37.053Z,20.41
2023-05-23T13:46:09.555Z,20.43
2023-05-23T13:48:42.066Z,20.46
2023-05-23T13:51:14.303Z,20.48
2023-05-23T13:53:46.734Z,20.53
2023-05-23T13:56:19.210Z,20.55
2023-05-23T13:58:51.592Z,20.53
2023-05-23T14:01:24.438Z,20.44
2023-05-23T14:03:56.787Z,20.44
2023-05-23T14:06:29.084Z,20.44
2023-05-23T14:09:01.532Z,20.42
2023-05-23T14:11:34.597Z,20.47
2023-05-23T14:14:06.939Z,20.49
2023-05-23T14:16:39.230Z,20.52
2023-05-23T14:19:11.533Z,20.53
2023-05-23T14:21:45.085Z,20.55
2023-05-23T14:24:17.684Z,20.60
2023-05-23T14:26:50.649Z,20.57
2023-05-23T14:29:23.043Z,20.45
2023-05-23T14:31:55.780Z,20.63
2023-05-23T14:34:28.255Z,20.65
2023-05-23T14:37:00.912Z,20.68
2023-05-23T14:39:33.329Z,20.69
2023-05-23T14:42:06.298Z,20.69
2023-05-23T14:44:38.600Z,20.70
2023-05-23T14:47:10.960Z,20.68
2023-05-23T14:49:43.257Z,20.65
2023-05-23T14:52:15.354Z,20.64
2023-05-23T14:54:48.134Z,20.56
2023-05-23T14:57:20.733Z,20.48
2023-05-23T14:59:53.110Z,20.53
2023-05-23T15:02:25.802Z,20.59
2023-05-23T15:04:57.908Z,20.58
2023-05-23T15:07:30.548Z,20.58
2023-05-23T15:10:03.704Z,20.56
2023-05-23T15:12:36.068Z,20.54
2023-05-23T15:15:09.959Z,20.51
2023-05-23T15:17:42.250Z,20.50
2023-05-23T15:20:15.179Z,20.51
2023-05-23T15:22:47.346Z,20.49
2023-05-23T15:25:30.302Z,20.48
2023-05-23T15:28:12.717Z,20.47
2023-05-23T15:30:47.666Z,20.44
2023-05-23T15:33:20.750Z,20.43
2023-05-23T15:35:53.927Z,20.41
2023-05-23T15:38:26.152Z,20.40
2023-05-23T15:40:59.569Z,20.37
2023-05-23T15:43:32.709Z,20.34
2023-05-23T15:46:05.966Z,20.34
2023-05-23T15:48:38.349Z,20.31
2023-05-23T15:51:10.870Z,20.31
2023-05-23T15:54:00.097Z,20.34
2023-05-23T15:56:33.269Z,20.33
2023-05-23T15:59:05.505Z,20.33
2023-05-23T16:01:38.527Z,20.33
2023-05-23T16:04:11.384Z,20.29
2023-05-23T16:06:43.940Z,20.39
2023-05-23T16:09:16.233Z,20.43
2023-05-23T16:11:48.725Z,20.46
2023-05-23T16:14:21.134Z,20.49
2023-05-23T16:16:53.437Z,20.53
2023-05-23T16:19:25.776Z,20.63
2023-05-23T16:21:58.422Z,20.68
2023-05-23T16:24:30.657Z,20.72
2023-05-23T16:27:04.023Z,20.77
2023-05-23T16:29:36.554Z,20.79
2023-05-23T16:32:10.167Z,20.85
2023-05-23T16:34:43.455Z,20.81
2023-05-23T16:37:17.309Z,20.95
2023-05-23T16:39:49.672Z,20.99
2023-05-23T16:42:22.478Z,21.11
2023-05-23T16:44:54.897Z,21.21
2023-05-23T16:47:27.349Z,21.26
2023-05-23T16:49:59.826Z,21.32
2023-05-23T16:52:32.245Z,21.40
2023-05-23T16:55:06.589Z,21.47
2023-05-23T16:57:38.771Z,21.51
2023-05-23T17:00:13.345Z,21.57
2023-05-23T17:02:45.921Z,21.60
2023-05-23T17:05:19.080Z,21.64
2023-05-23T17:07:51.374Z,21.67
2023-05-23T17:10:23.891Z,21.64
2023-05-23T17:12:56.823Z,21.64
2023-05-23T17:15:29.594Z,21.61
2023-05-23T17:18:02.250Z,21.58
2023-05-23T17:20:34.583Z,21.54
2023-05-23T17:23:07.189Z,21.50
2023-05-23T17:25:39.878Z,21.46
2023-05-23T17:28:12.626Z,21.27
2023-05-23T17:30:44.769Z,21.37
2023-05-23T17:33:17.149Z,21.31
2023-05-23T17:35:49.827Z,21.24
2023-05-23T17:38:22.129Z,21.20
2023-05-23T17:40:54.243Z,21.16
2023-05-23T17:43:26.807Z,21.12
2023-05-23T17:45:59.252Z,21.07
2023-05-23T17:48:46.427Z,21.04
2023-05-23T17:51:20.472Z,21.01
2023-05-23T17:53:53.875Z,20.96
2023-05-23T17:56:26.189Z,20.92
2023-05-23T17:58:58.855Z,20.89
2023-05-23T18:01:31.529Z,20.85
2023-05-23T18:04:04.120Z,20.81
2023-05-23T18:06:36.877Z,20.79
2023-05-23T18:09:09.860Z,20.72
2023-05-23T18:11:42.892Z,20.69
2023-05-23T18:14:15.229Z,20.67
2023-05-23T18:16:47.621Z,20.61
2023-05-23T18:19:20.711Z,20.57
2023-05-23T18:21:53.337Z,20.50
2023-05-23T18:24:25.820Z,20.51
2023-05-23T18:26:58.389Z,20.47
2023-05-23T18:29:30.760Z,20.42
2023-05-23T18:32:03.083Z,20.37
2023-05-23T18:34:35.674Z,20.33
2023-05-23T18:37:08.898Z,20.30
2023-05-23T18:39:41.265Z,20.27
2023-05-23T18:42:13.320Z,20.23
2023-05-23T18:44:45.513Z,20.13
2023-05-23T18:47:18.118Z,20.07
2023-05-23T18:49:50.463Z,20.12
2023-05-23T18:52:22.819Z,20.07
2023-05-23T18:54:54.984Z,20.03
2023-05-23T18:57:27.161Z,20.05
2023-05-23T18:59:59.669Z,20.09
2023-05-23T19:02:32.166Z,20.10
2023-05-23T19:05:04.962Z,20.07
2023-05-23T19:07:37.524Z,20.08
2023-05-23T19:10:11.672Z,20.05
2023-05-23T19:12:43.986Z,20.04
2023-05-23T19:15:16.984Z,20.03
2023-05-23T19:17:49.368Z,20.02
2023-05-23T19:20:22.178Z,19.91
2023-05-23T19:22:54.972Z,19.97
2023-05-23T19:25:27.658Z,19.94
2023-05-23T19:28:00.060Z,19.95
2023-05-23T19:30:33.371Z,19.94
2023-05-23T19:33:05.610Z,19.88
2023-05-23T19:35:38.761Z,19.96
2023-05-23T19:38:11.193Z,19.95
2023-05-23T19:40:46.978Z,19.96
2023-05-23T19:43:20.258Z,19.92
2023-05-23T19:45:52.818Z,19.91
2023-05-23T19:48:25.211Z,19.90
2023-05-23T19:50:57.606Z,19.92
2023-05-23T19:53:30.083Z,19.92
2023-05-23T19:56:03.747Z,19.75
2023-05-23T19:58:36.417Z,19.88
2023-05-23T20:01:09.090Z,19.85
2023-05-23T20:03:43.068Z,19.83
2023-05-23T20:06:16.634Z,19.85
2023-05-23T20:08:49.354Z,19.82
2023-05-23T20:11:23.730Z,19.78
2023-05-23T20:13:56.086Z,19.75
2023-05-23T20:16:28.404Z,19.75
2023-05-23T20:19:00.889Z,19.77
2023-05-23T20:21:33.388Z,19.77
2023-05-23T20:24:06.594Z,19.77
2023-05-23T20:26:38.850Z,19.72
2023-05-23T20:29:11.141Z,19.71
2023-05-23T20:31:43.674Z,19.68
2023-05-23T20:34:16.216Z,19.67
2023-05-23T20:36:49.048Z,19.65
2023-05-23T20:39:22.080Z,19.64
2023-05-23T20:41:54.853Z,19.63
2023-05-23T20:44:26.964Z,19.62
2023-05-23T20:46:59.177Z,19.59
2023-05-23T20:49:31.357Z,19.58
2023-05-23T20:52:03.873Z,19.52
2023-05-23T20:54:36.840Z,19.47
2023-05-23T20:57:09.429Z,19.47
2023-05-23T20:59:41.839Z,19.40
2023-05-23T21:02:14.460Z,19.38
2023-05-23T21:04:46.720Z,19.37
2023-05-23T21:07:19.202Z,19.36
2023-05-23T21:09:51.671Z,19.38
2023-05-23T21:12:23.953Z,19.37
2023-05-23T21:14:57.798Z,19.36
2023-05-23T21:17:30.151Z,19.31
2023-05-23T21:20:02.489Z,19.37
2023-05-23T21:22:34.874Z,19.35
2023-05-23T21:25:08.130Z,19.36
2023-05-23T21:27:40.431Z,19.32
2023-05-23T21:30:15.229Z,19.31
2023-05-23T21:32:46.497Z,19.27
2023-05-23T21:35:18.828Z,19.23
2023-05-23T21:37:51.421Z,19.20
2023-05-23T21:40:25.296Z,19.20
2023-05-23T21:42:57.720Z,19.15
2023-05-23T21:45:29.777Z,19.14
2023-05-23T21:48:02.248Z,19.16
2023-05-23T21:50:34.451Z,19.17
2023-05-23T21:53:06.767Z,19.06
2023-05-23T21:55:39.256Z,19.19
2023-05-23T21:58:12.773Z,19.19
2023-05-23T22:00:45.712Z,19.15
2023-05-23T22:03:18.076Z,19.09
2023-05-23T22:05:50.496Z,19.16
2023-05-23T22:08:23.286Z,19.12
2023-05-23T22:10:55.941Z,19.18
2023-05-23T22:13:28.375Z,19.13
2023-05-23T22:16:00.993Z,19.07
2023-05-23T22:18:50.950Z,19.06
2023-05-23T22:21:24.053Z,19.07
2023-05-23T22:23:57.917Z,19.06
2023-05-23T22:26:32.170Z,19.07
2023-05-23T22:29:04.621Z,19.00
2023-05-23T22:31:36.858Z,19.02
2023-05-23T22:34:09.013Z,19.04
2023-05-23T22:36:41.195Z,19.00
2023-05-23T22:39:14.871Z,19.01
2023-05-23T22:41:47.301Z,18.98
2023-05-23T22:44:19.813Z,19.01
2023-05-23T22:46:58.153Z,18.99
2023-05-23T22:49:32.185Z,19.01
2023-05-23T22:52:04.850Z,19.03
2023-05-23T22:54:37.094Z,19.01
2023-05-23T22:57:09.530Z,19.00
2023-05-23T22:59:41.857Z,19.00
2023-05-23T23:02:14.271Z,18.97
2023-05-23T23:04:46.450Z,18.93
2023-05-23T23:07:18.669Z,18.93
2023-05-23T23:09:52.120Z,18.92
2023-05-23T23:12:24.902Z,18.91
2023-05-23T23:14:57.164Z,18.80
2023-05-23T23:17:29.901Z,18.82
2023-05-23T23:20:02.316Z,18.78
2023-05-23T23:22:34.511Z,18.64
2023-05-23T23:25:10.507Z,18.66
2023-05-23T23:27:43.214Z,18.66
2023-05-23T23:30:16.005Z,18.64
2023-05-23T23:32:48.246Z,18.60
2023-05-23T23:35:20.449Z,18.47
2023-05-23T23:37:52.650Z,18.37
2023-05-23T23:40:25.175Z,18.30
2023-05-23T23:42:57.836Z,18.33
2023-05-23T23:45:31.406Z,18.38
2023-05-23T23:48:03.681Z,18.32
2023-05-23T23:50:36.068Z,18.33
2023-05-23T23:53:08.930Z,18.33
2023-05-23T23:55:41.485Z,18.40
2023-05-23T23:58:13.853Z,18.38
